Terminal Aerodrome Forecast
Issued by NWS

Home | Current Version | Previous Version | Graphics & Text | Print | Product List | Glossary On
Versions: 1 2 3 4 5 6 7 8 9 10 11 12 13 14 15 16
000
FTUS45 KVEF 292320
TAFDAG
TAF
KDAG 292320Z 3000/3024 08012G20KT P6SM VCTS SCT120CB BKN200
      TEMPO 3000/3002 VRB20G30KT -TSRA BKN100CB
     FM300200 15007KT P6SM VCSH SCT100 BKN150
     FM300500 24005KT P6SM VCSH SCT100 BKN150
     FM302100 07010KT P6SM VCTS SCT100CB BKN200=

USA.gov is the U.S. government's official web portal to all federal, state and local government web resources and services.